Time;durP1;ratioP1;P1;durP2;ratioP2;P2;SDS_P1;SDS_P2;PMS_P1;PMS_P2;Temp;Humidity;BMP_temperature;BMP_pressure;BME280_temperature;BME280_humidity;BME280_pressure;Samples;Min_cycle;Max_cycle;Signal;HPM_P1;HPM_P2
2023/09/13 00:01:34;;;;;;;21.40;14.90;;;;;;;20.53;100.00;101037.34;5051755;28;20049;-60
2023/09/13 00:04:02;;;;;;;22.73;15.70;;;;;;;20.53;100.00;101037.34;5052398;28;20049;-61
2023/09/13 00:06:30;;;;;;;24.90;16.05;;;;;;;20.54;100.00;101035.38;5016208;28;20045;-62
2023/09/13 00:08:57;;;;;;;22.35;16.15;;;;;;;20.67;100.00;101040.41;5046386;28;20052;-61
2023/09/13 00:11:24;;;;;;;17.42;14.60;;;;;;;20.37;100.00;101035.84;5035457;28;20060;-60
2023/09/13 00:13:52;;;;;;;19.13;15.45;;;;;;;20.21;100.00;101040.75;5054233;28;20737;-62
2023/09/13 00:16:19;;;;;;;19.27;15.60;;;;;;;20.17;100.00;101043.47;5052876;28;20503;-60
2023/09/13 00:18:46;;;;;;;20.60;15.07;;;;;;;19.97;100.00;101039.84;5054147;28;20057;-61
2023/09/13 00:21:14;;;;;;;21.75;16.25;;;;;;;19.62;100.00;101041.06;5052313;28;20052;-60
2023/09/13 00:23:41;;;;;;;20.40;15.85;;;;;;;19.66;100.00;101039.19;5052878;28;20526;-60
2023/09/13 00:26:09;;;;;;;18.77;15.40;;;;;;;19.48;100.00;101035.16;5056440;28;20053;-61
2023/09/13 00:28:37;;;;;;;21.35;16.13;;;;;;;19.38;100.00;101033.78;5068987;28;20396;-61
2023/09/13 00:31:08;;;;;;;20.52;15.05;;;;;;;19.68;100.00;101036.81;5053679;28;20041;-62
2023/09/13 00:33:36;;;;;;;23.35;16.08;;;;;;;19.75;100.00;101036.97;5060552;28;20049;-61
2023/09/13 00:36:04;;;;;;;21.67;15.25;;;;;;;19.83;100.00;101027.56;5068768;28;20682;-60
2023/09/13 00:38:31;;;;;;;21.85;16.15;;;;;;;19.87;100.00;101040.44;5068623;28;20136;-61
2023/09/13 00:40:59;;;;;;;20.20;14.70;;;;;;;20.05;100.00;101040.78;5058761;28;20056;-61
2023/09/13 00:43:26;;;;;;;21.98;15.02;;;;;;;20.09;100.00;101034.09;5033810;28;20061;-64
2023/09/13 00:45:54;;;;;;;19.70;14.40;;;;;;;19.82;100.00;101040.72;5052312;28;20061;-65
2023/09/13 00:48:23;;;;;;;18.40;14.40;;;;;;;19.89;100.00;101051.25;5052339;28;20053;-61
2023/09/13 00:50:51;;;;;;;18.95;14.30;;;;;;;19.91;100.00;101049.69;5056340;28;20041;-60
2023/09/13 00:53:23;;;;;;;20.05;14.40;;;;;;;20.17;100.00;101046.28;5050244;28;20679;-61
2023/09/13 00:55:51;;;;;;;21.70;13.80;;;;;;;20.35;100.00;101046.59;5038137;28;20433;-60
2023/09/13 00:58:19;;;;;;;19.83;14.43;;;;;;;20.18;100.00;101053.47;5046654;28;20055;-61
2023/09/13 01:00:49;;;;;;;19.30;14.43;;;;;;;19.99;100.00;101051.47;5032085;28;20547;-60
2023/09/13 01:03:16;;;;;;;20.52;14.27;;;;;;;20.15;100.00;101054.19;5050132;28;20061;-63
2023/09/13 01:05:44;;;;;;;19.50;14.45;;;;;;;20.14;100.00;101049.75;5052222;28;20048;-60
2023/09/13 01:08:12;;;;;;;20.52;16.02;;;;;;;19.99;100.00;101048.69;5051709;28;20515;-61
2023/09/13 01:10:39;;;;;;;19.33;15.65;;;;;;;19.89;100.00;101042.88;5053199;28;20048;-61
2023/09/13 01:13:06;;;;;;;20.65;15.82;;;;;;;19.92;100.00;101053.31;5052217;28;20061;-61
2023/09/13 01:15:38;;;;;;;22.45;16.60;;;;;;;19.56;100.00;101048.16;5051106;28;20068;-61
2023/09/13 01:18:19;;;;;;;22.65;16.40;;;;;;;19.52;100.00;101062.03;5064104;28;20156;-62
2023/09/13 01:20:53;;;;;;;22.63;16.70;;;;;;;19.62;100.00;101050.28;5041116;28;20060;-61
2023/09/13 01:23:48;;;;;;;25.48;16.85;;;;;;;19.46;100.00;101054.28;5037975;28;20053;-61
2023/09/13 01:26:46;;;;;;;28.00;19.27;;;;;;;19.30;100.00;101045.94;5032976;28;20053;-61
2023/09/13 01:29:15;;;;;;;25.45;18.25;;;;;;;19.64;100.00;101047.94;5029150;28;20060;-61
2023/09/13 01:31:43;;;;;;;28.25;19.85;;;;;;;19.60;100.00;101046.22;5047596;28;20580;-61
2023/09/13 01:34:11;;;;;;;27.73;19.05;;;;;;;19.64;100.00;101049.91;5052762;28;20044;-61
2023/09/13 01:36:38;;;;;;;25.80;20.45;;;;;;;19.75;100.00;101046.16;5050718;28;20858;-61
2023/09/13 01:39:06;;;;;;;30.55;21.08;;;;;;;19.53;100.00;101051.66;5051089;28;20482;-63
2023/09/13 01:41:43;;;;;;;29.00;20.00;;;;;;;19.59;100.00;101061.38;5047569;28;20666;-61
2023/09/13 01:44:10;;;;;;;31.00;21.50;;;;;;;19.31;100.00;101057.94;5069467;28;20462;-61
2023/09/13 01:46:42;;;;;;;35.55;22.08;;;;;;;19.10;100.00;101066.59;5051371;28;20063;-61
2023/09/13 01:49:12;;;;;;;25.80;20.30;;;;;;;19.17;100.00;101074.31;5047798;28;21014;-62
2023/09/13 01:51:40;;;;;;;29.80;21.60;;;;;;;19.08;100.00;101077.31;5062811;28;20056;-61
2023/09/13 01:54:08;;;;;;;27.98;21.77;;;;;;;19.03;100.00;101078.41;5052363;28;20090;-61
2023/09/13 01:56:36;;;;;;;30.80;20.92;;;;;;;19.08;100.00;101080.91;5032666;28;20054;-61
2023/09/13 01:59:04;;;;;;;28.98;22.42;;;;;;;19.20;100.00;101077.22;5078045;28;20367;-61
2023/09/13 02:01:31;;;;;;;30.95;22.65;;;;;;;19.16;100.00;101087.47;5039065;28;20057;-61
2023/09/13 02:03:59;;;;;;;28.90;21.38;;;;;;;19.34;100.00;101090.72;5046609;28;20049;-61
2023/09/13 02:06:26;;;;;;;34.38;21.60;;;;;;;19.31;100.00;101097.03;5050911;28;20052;-62
2023/09/13 02:08:54;;;;;;;25.67;21.00;;;;;;;19.22;100.00;101083.25;5052010;28;20071;-61
2023/09/13 02:11:21;;;;;;;26.23;20.98;;;;;;;19.28;100.00;101087.41;5066682;28;20079;-62
2023/09/13 02:13:50;;;;;;;26.52;21.85;;;;;;;19.25;100.00;101090.09;5038936;28;20053;-65
2023/09/13 02:16:21;;;;;;;27.10;22.13;;;;;;;19.56;100.00;101084.47;5031163;28;20049;-66
2023/09/13 02:18:49;;;;;;;26.50;20.65;;;;;;;19.77;100.00;101090.53;5060480;28;20365;-65
2023/09/13 02:21:16;;;;;;;27.45;21.50;;;;;;;19.68;100.00;101082.34;5040180;28;20048;-64
2023/09/13 02:23:44;;;;;;;27.33;21.27;;;;;;;19.77;100.00;101090.53;5037658;28;20057;-65
2023/09/13 02:26:22;;;;;;;26.65;21.95;;;;;;;19.66;100.00;101090.31;5041721;28;20041;-65
2023/09/13 02:28:51;;;;;;;29.48;21.98;;;;;;;19.47;100.00;101093.06;5045746;28;20057;-64
2023/09/13 02:31:26;;;;;;;29.23;20.88;;;;;;;19.48;100.00;101097.47;5031863;28;20041;-65
2023/09/13 02:33:54;;;;;;;35.40;23.35;;;;;;;19.44;100.00;101104.94;5052847;28;20061;-65
2023/09/13 02:36:22;;;;;;;31.30;21.73;;;;;;;19.62;100.00;101105.34;5050135;28;20439;-65
2023/09/13 02:38:50;;;;;;;27.35;21.08;;;;;;;19.22;100.00;101110.34;5047489;28;20049;-63
2023/09/13 02:41:18;;;;;;;30.95;21.90;;;;;;;19.03;100.00;101103.53;5056440;28;20033;-64
2023/09/13 02:43:45;;;;;;;30.90;21.20;;;;;;;18.97;100.00;101104.97;5049815;28;20053;-65
2023/09/13 02:46:13;;;;;;;34.08;22.08;;;;;;;18.99;100.00;101108.22;5031101;28;20046;-65
2023/09/13 02:48:41;;;;;;;29.08;21.33;;;;;;;18.99;100.00;101110.19;5039253;28;20040;-65
2023/09/13 02:51:13;;;;;;;25.85;19.60;;;;;;;18.77;100.00;101111.63;5061346;28;20466;-65
2023/09/13 02:53:40;;;;;;;22.77;18.05;;;;;;;18.84;100.00;101109.03;5083678;28;20059;-64
2023/09/13 02:56:08;;;;;;;23.20;17.35;;;;;;;18.71;100.00;101126.19;5059811;28;20037;-64
2023/09/13 02:58:37;;;;;;;20.27;16.05;;;;;;;18.82;100.00;101119.75;5064140;28;20459;-65
2023/09/13 03:01:10;;;;;;;21.58;16.50;;;;;;;18.85;100.00;101124.59;5031158;28;20057;-64
2023/09/13 03:03:40;;;;;;;19.98;15.40;;;;;;;19.11;100.00;101117.69;5038613;28;20052;-65
2023/09/13 03:06:11;;;;;;;21.27;14.88;;;;;;;19.15;100.00;101116.59;5049712;28;20049;-65
2023/09/13 03:08:40;;;;;;;23.92;16.00;;;;;;;19.11;100.00;101120.47;5041592;28;20045;-65
2023/09/13 03:11:11;;;;;;;19.13;14.32;;;;;;;19.43;100.00;101116.50;5032821;28;20675;-65
2023/09/13 03:13:39;;;;;;;20.00;14.50;;;;;;;19.32;100.00;101116.22;5052353;28;20049;-65
2023/09/13 03:16:14;;;;;;;22.15;15.35;;;;;;;19.18;100.00;101117.84;5013878;28;20049;-65
2023/09/13 03:18:42;;;;;;;23.70;16.63;;;;;;;19.03;100.00;101119.47;5054082;28;20050;-66
2023/09/13 03:21:12;;;;;;;22.40;16.10;;;;;;;18.87;100.00;101116.69;5029783;28;20152;-64
2023/09/13 03:23:43;;;;;;;20.77;14.50;;;;;;;19.11;100.00;101118.47;5052001;28;20049;-66
2023/09/13 03:26:21;;;;;;;19.90;14.23;;;;;;;19.01;100.00;101116.22;5042622;28;20060;-65
2023/09/13 03:28:54;;;;;;;17.75;13.55;;;;;;;19.25;100.00;101116.03;5050309;28;20048;-65
2023/09/13 03:31:23;;;;;;;16.58;13.68;;;;;;;19.43;100.00;101113.69;5049816;28;20530;-65
2023/09/13 03:33:56;;;;;;;16.13;12.32;;;;;;;19.46;100.00;101108.19;5072031;28;20053;-65
2023/09/13 03:36:29;;;;;;;20.38;13.95;;;;;;;19.19;100.00;101111.09;5029686;28;20045;-65
2023/09/13 03:38:59;;;;;;;21.15;13.20;;;;;;;18.86;100.00;101114.25;5064189;28;20495;-65
2023/09/13 03:41:29;;;;;;;20.13;13.52;;;;;;;19.09;100.00;101110.44;5059140;28;20071;-65
2023/09/13 03:43:56;;;;;;;19.40;13.35;;;;;;;19.03;100.00;101113.88;5043230;28;20064;-64
2023/09/13 03:46:25;;;;;;;20.92;12.70;;;;;;;19.08;100.00;101119.19;5053313;28;20053;-64
2023/09/13 03:48:55;;;;;;;19.73;14.02;;;;;;;18.78;100.00;101115.22;5041722;28;20048;-64
2023/09/13 03:51:23;;;;;;;21.55;13.68;;;;;;;18.97;100.00;101109.72;5077478;28;20049;-65
2023/09/13 03:53:50;;;;;;;20.45;13.27;;;;;;;19.13;100.00;101106.94;5054548;28;20562;-64
2023/09/13 03:56:18;;;;;;;21.42;14.57;;;;;;;19.23;100.00;101115.56;5069241;28;20044;-63
2023/09/13 03:58:45;;;;;;;21.95;14.40;;;;;;;19.35;100.00;101111.91;5061745;28;20044;-64
2023/09/13 04:01:12;;;;;;;23.48;15.55;;;;;;;18.80;100.00;101110.91;5066916;28;20049;-64
2023/09/13 04:03:43;;;;;;;25.48;15.93;;;;;;;18.93;100.00;101106.84;5053358;28;20676;-65
2023/09/13 04:06:12;;;;;;;18.90;14.82;;;;;;;19.15;100.00;101105.41;5052974;28;20071;-64
2023/09/13 04:08:39;;;;;;;20.25;14.02;;;;;;;19.36;100.00;101107.94;5056508;28;20702;-65
2023/09/13 04:11:08;;;;;;;19.77;13.98;;;;;;;19.10;100.00;101108.47;5053208;28;20065;-64
2023/09/13 04:13:35;;;;;;;21.67;13.40;;;;;;;19.10;100.00;101111.28;5038553;28;20041;-64
2023/09/13 04:16:05;;;;;;;21.90;13.25;;;;;;;19.05;100.00;101114.34;5016538;28;20400;-64
2023/09/13 04:18:32;;;;;;;20.65;14.43;;;;;;;19.06;100.00;101115.94;5035776;28;20053;-63
2023/09/13 04:21:00;;;;;;;20.38;15.55;;;;;;;18.99;100.00;101115.78;5069300;28;20056;-65
2023/09/13 04:23:28;;;;;;;23.05;16.02;;;;;;;19.12;100.00;101110.91;5051043;28;20516;-64
2023/09/13 04:25:57;;;;;;;24.98;16.25;;;;;;;18.81;100.00;101103.34;5040087;28;20045;-64
2023/09/13 04:28:25;;;;;;;22.67;15.30;;;;;;;19.01;100.00;101113.44;5052661;28;20365;-64
2023/09/13 04:30:53;;;;;;;21.38;15.52;;;;;;;18.85;100.00;101109.81;5039238;28;20045;-64
2023/09/13 04:33:53;;;;;;;23.17;15.75;;;;;;;18.51;100.00;101102.13;5057009;28;20683;-64
2023/09/13 04:36:28;;;;;;;20.25;15.77;;;;;;;18.69;100.00;101106.22;5044886;28;20049;-64
2023/09/13 04:38:57;;;;;;;19.83;15.65;;;;;;;18.79;100.00;101105.69;5054128;28;20142;-64
2023/09/13 04:41:26;;;;;;;22.55;16.13;;;;;;;18.84;100.00;101114.63;5058833;28;20052;-64
2023/09/13 04:43:53;;;;;;;22.90;15.73;;;;;;;19.02;100.00;101115.06;5044867;28;20406;-65
2023/09/13 04:46:20;;;;;;;19.42;14.55;;;;;;;19.22;100.00;101121.53;5052897;28;20041;-65
2023/09/13 04:48:48;;;;;;;20.65;14.55;;;;;;;18.96;100.00;101122.09;5049355;28;20056;-64
2023/09/13 04:51:16;;;;;;;21.95;14.02;;;;;;;19.08;100.00;101114.44;5054329;28;20529;-65
2023/09/13 04:53:43;;;;;;;19.98;13.82;;;;;;;18.95;100.00;101115.69;5050370;28;20443;-65
2023/09/13 04:56:11;;;;;;;22.35;14.38;;;;;;;18.88;100.00;101121.06;5032256;28;20397;-66
2023/09/13 04:58:45;;;;;;;18.40;14.55;;;;;;;18.87;100.00;101119.47;5047115;28;20045;-65
2023/09/13 05:01:12;;;;;;;23.73;15.00;;;;;;;18.60;100.00;101122.31;5050535;28;20565;-64
2023/09/13 05:03:40;;;;;;;19.45;14.50;;;;;;;18.83;100.00;101124.13;5037474;28;20061;-65
2023/09/13 05:06:08;;;;;;;19.58;14.25;;;;;;;18.84;100.00;101130.53;5052646;28;20056;-64
2023/09/13 05:08:37;;;;;;;21.38;14.60;;;;;;;18.84;100.00;101134.16;5050211;28;20049;-65
2023/09/13 05:11:04;;;;;;;19.58;14.02;;;;;;;18.77;100.00;101136.75;5068967;28;20048;-65
2023/09/13 05:13:32;;;;;;;24.50;14.65;;;;;;;18.84;100.00;101136.94;5049139;28;20036;-64
2023/09/13 05:15:59;;;;;;;17.77;13.65;;;;;;;18.67;100.00;101128.88;5030158;28;20057;-65
2023/09/13 05:18:30;;;;;;;19.98;13.60;;;;;;;18.71;100.00;101134.56;5041032;28;20042;-64
2023/09/13 05:20:57;;;;;;;;;;;;;;;18.81;100.00;101143.22;5051966;28;20049;-65
2023/09/13 05:23:25;;;;;;;18.70;12.95;;;;;;;18.96;100.00;101136.03;5046071;28;19921;-65
2023/09/13 05:25:55;;;;;;;17.35;13.02;;;;;;;19.01;100.00;101155.31;5063002;28;20053;-65
2023/09/13 05:28:24;;;;;;;17.67;12.93;;;;;;;19.05;100.00;101162.63;5051401;28;20052;-65
2023/09/13 05:30:52;;;;;;;19.27;12.80;;;;;;;19.28;100.00;101153.59;5060450;28;20056;-65
2023/09/13 05:33:19;;;;;;;19.63;13.48;;;;;;;19.23;100.00;101165.06;5059504;28;20463;-65
2023/09/13 05:35:46;;;;;;;20.95;12.73;;;;;;;19.19;100.00;101159.38;5067388;28;20061;-65
2023/09/13 05:38:14;;;;;;;21.00;12.82;;;;;;;19.12;100.00;101170.38;5051401;28;20056;-66
2023/09/13 05:40:41;;;;;;;20.25;12.45;;;;;;;19.15;100.00;101169.66;5057398;28;20053;-67
2023/09/13 05:43:08;;;;;;;18.25;12.70;;;;;;;19.16;100.00;101171.25;5072033;28;20153;-65
2023/09/13 05:45:37;;;;;;;20.52;12.13;;;;;;;19.51;100.00;101177.75;5051048;28;20064;-65
2023/09/13 05:48:05;;;;;;;16.55;11.88;;;;;;;19.26;100.00;101178.28;5047902;28;20064;-66
2023/09/13 05:50:32;;;;;;;18.42;12.90;;;;;;;19.23;100.00;101173.44;5050907;28;20598;-63
2023/09/13 05:53:00;;;;;;;18.35;12.38;;;;;;;19.48;100.00;101178.50;5087648;28;20056;-64
2023/09/13 05:55:27;;;;;;;18.70;12.60;;;;;;;19.59;100.00;101179.56;5052883;28;20037;-66
2023/09/13 05:57:55;;;;;;;19.58;12.80;;;;;;;19.77;100.00;101185.59;5050115;28;20066;-64
2023/09/13 06:00:22;;;;;;;23.67;13.50;;;;;;;19.55;100.00;101183.44;5049427;28;20052;-65
2023/09/13 06:02:50;;;;;;;18.98;13.65;;;;;;;19.13;100.00;101190.72;5049913;28;20052;-65
2023/09/13 06:05:17;;;;;;;19.58;13.45;;;;;;;18.91;100.00;101192.97;5049729;28;20539;-63
2023/09/13 06:07:45;;;;;;;19.10;13.70;;;;;;;19.18;100.00;101198.84;5050089;28;20048;-64
2023/09/13 06:10:12;;;;;;;21.17;14.77;;;;;;;19.00;100.00;101203.97;5046829;28;20057;-63
2023/09/13 06:12:40;;;;;;;22.77;13.77;;;;;;;18.90;100.00;101198.88;5049504;28;20044;-65
2023/09/13 06:15:08;;;;;;;24.02;14.57;;;;;;;18.87;100.00;101199.59;5050897;28;20052;-64
2023/09/13 06:17:36;;;;;;;22.77;16.35;;;;;;;18.96;100.00;101203.88;5051743;28;20384;-67
2023/09/13 06:20:06;;;;;;;23.42;14.43;;;;;;;18.95;100.00;101204.22;5058058;28;20049;-66
2023/09/13 06:22:34;;;;;;;;;;;;;;;18.79;100.00;101203.38;5035194;28;20046;-65
2023/09/13 06:25:03;;;;;;;23.92;14.60;;;;;;;19.25;100.00;101205.41;5044934;28;19925;-64
2023/09/13 06:27:36;;;;;;;21.83;14.00;;;;;;;19.06;100.00;101206.13;5049289;28;20521;-64
2023/09/13 06:30:04;;;;;;;18.33;14.18;;;;;;;19.13;100.00;101208.28;5042056;28;20045;-65
2023/09/13 06:32:31;;;;;;;17.98;13.82;;;;;;;19.12;100.00;101214.22;5049833;28;20047;-65
2023/09/13 06:35:12;;;;;;;19.17;12.63;;;;;;;19.35;100.00;101218.91;5041389;28;20764;-65
2023/09/13 06:37:44;;;;;;;16.55;11.82;;;;;;;19.39;100.00;101221.75;5041286;28;20051;-65
2023/09/13 06:40:15;;;;;;;18.45;11.07;;;;;;;19.83;100.00;101218.47;5035821;28;20072;-67
2023/09/13 06:42:43;;;;;;;21.00;12.23;;;;;;;19.88;100.00;101212.59;5041538;28;20037;-66
2023/09/13 06:45:26;;;;;;;22.42;12.77;;;;;;;20.01;100.00;101222.47;5040405;28;20049;-66
2023/09/13 06:47:56;;;;;;;19.27;11.38;;;;;;;20.21;100.00;101223.38;5043460;28;20050;-66
2023/09/13 06:50:25;;;;;;;22.23;12.75;;;;;;;19.93;100.00;101223.50;5044844;28;20045;-67
2023/09/13 06:53:12;;;;;;;19.50;11.20;;;;;;;20.28;100.00;101217.13;5028581;28;20057;-67
2023/09/13 06:55:43;;;;;;;19.13;11.55;;;;;;;20.36;100.00;101214.13;5041028;28;20052;-66
2023/09/13 06:58:14;;;;;;;21.73;11.77;;;;;;;20.55;100.00;101214.13;5041357;28;20084;-66
2023/09/13 07:00:44;;;;;;;17.77;12.25;;;;;;;20.42;100.00;101217.41;5042479;28;20057;-66
2023/09/13 07:03:32;;;;;;;19.60;12.18;;;;;;;20.60;98.95;101227.00;5053630;28;20079;-66
2023/09/13 07:06:08;;;;;;;16.75;12.23;;;;;;;19.85;100.00;101230.13;5051199;28;20072;-66
2023/09/13 07:08:38;;;;;;;20.90;13.68;;;;;;;19.71;100.00;101229.78;5043607;28;20037;-65
2023/09/13 07:11:06;;;;;;;19.20;12.88;;;;;;;19.93;100.00;101228.28;5043030;28;20066;-66
2023/09/13 07:13:34;;;;;;;18.85;12.60;;;;;;;20.17;100.00;101233.69;5041109;28;20052;-67
2023/09/13 07:16:01;;;;;;;23.80;12.40;;;;;;;20.32;100.00;101224.44;5044214;28;20052;-68
2023/09/13 07:18:29;;;;;;;17.70;14.57;;;;;;;20.10;100.00;101231.50;5026157;28;20049;-67
2023/09/13 07:20:57;;;;;;;16.88;11.68;;;;;;;20.19;100.00;101228.50;5053957;28;20052;-65
2023/09/13 07:23:24;;;;;;;17.88;11.35;;;;;;;20.44;98.23;101238.28;5042932;28;20056;-66
2023/09/13 07:25:52;;;;;;;17.88;11.23;;;;;;;20.07;98.10;101235.03;5040644;28;20452;-68
2023/09/13 07:28:20;;;;;;;19.73;10.95;;;;;;;20.37;98.64;101242.91;5049663;28;20049;-67
2023/09/13 07:30:48;;;;;;;17.73;10.07;;;;;;;20.41;97.34;101239.03;5051065;28;20054;-66
2023/09/13 07:33:15;;;;;;;12.80;9.07;;;;;;;20.70;95.81;101249.63;5051114;28;20045;-66
2023/09/13 07:35:43;;;;;;;14.32;9.25;;;;;;;20.71;94.61;101248.44;5042011;28;20049;-66
2023/09/13 07:38:11;;;;;;;15.60;10.70;;;;;;;20.26;95.11;101258.66;5044279;28;20056;-66
2023/09/13 07:40:39;;;;;;;15.40;10.75;;;;;;;19.51;100.00;101260.81;5046781;28;20049;-66
2023/09/13 07:43:07;;;;;;;17.13;11.20;;;;;;;19.25;100.00;101254.91;5049330;28;20487;-66
2023/09/13 07:45:34;;;;;;;13.32;9.85;;;;;;;19.84;100.00;101258.44;5048477;28;20052;-66
2023/09/13 07:48:05;;;;;;;11.93;9.75;;;;;;;19.97;100.00;101260.75;5039677;28;20430;-65
2023/09/13 07:50:38;;;;;;;16.80;10.65;;;;;;;19.84;100.00;101264.03;5042154;28;20068;-66
2023/09/13 07:53:07;;;;;;;13.30;9.52;;;;;;;20.07;100.00;101274.19;5042281;28;20056;-66
2023/09/13 07:55:34;;;;;;;16.25;10.10;;;;;;;19.97;100.00;101274.75;5044953;28;20041;-66
2023/09/13 07:58:03;;;;;;;13.13;10.10;;;;;;;19.94;100.00;101278.28;5048449;28;20049;-67
2023/09/13 08:00:31;;;;;;;16.02;9.88;;;;;;;20.02;100.00;101274.47;5043524;28;20537;-67
2023/09/13 08:02:59;;;;;;;11.13;8.90;;;;;;;19.74;100.00;101279.34;5038536;28;20511;-66
2023/09/13 08:05:27;;;;;;;14.95;9.00;;;;;;;19.50;100.00;101281.53;5057612;28;20068;-67
2023/09/13 08:07:55;;;;;;;16.73;8.88;;;;;;;19.47;100.00;101287.84;5036620;28;20060;-65
2023/09/13 08:10:23;;;;;;;14.45;7.80;;;;;;;19.61;100.00;101286.22;5040734;28;20049;-66
2023/09/13 08:12:51;;;;;;;14.10;8.70;;;;;;;19.65;100.00;101287.09;5036371;28;20045;-67
2023/09/13 08:15:19;;;;;;;12.93;8.45;;;;;;;19.66;100.00;101294.34;5038428;28;20167;-67
2023/09/13 08:18:02;;;;;;;17.95;8.90;;;;;;;19.63;98.44;101294.25;5039470;28;20056;-66
2023/09/13 08:20:30;;;;;;;21.73;8.57;;;;;;;19.50;99.51;101299.09;5042590;28;20041;-67
2023/09/13 08:22:57;;;;;;;15.63;7.88;;;;;;;19.62;99.13;101301.00;5041008;28;20061;-66
2023/09/13 08:25:25;;;;;;;13.02;7.85;;;;;;;19.42;100.00;101300.06;5040030;28;20523;-66
2023/09/13 08:27:52;;;;;;;14.68;8.20;;;;;;;19.53;100.00;101300.34;5050624;28;20063;-67
2023/09/13 08:30:20;;;;;;;14.98;7.80;;;;;;;19.65;100.00;101308.69;5049344;28;20045;-67
2023/09/13 08:32:47;;;;;;;11.60;7.25;;;;;;;19.77;99.58;101314.97;5049093;28;20053;-66
2023/09/13 08:35:15;;;;;;;15.38;6.95;;;;;;;20.27;97.07;101314.25;5049175;28;20040;-67
2023/09/13 08:37:42;;;;;;;10.55;7.28;;;;;;;20.15;95.17;101319.91;5042428;28;20048;-68
2023/09/13 08:40:12;;;;;;;16.08;7.82;;;;;;;20.28;95.19;101329.84;5045168;28;20057;-66
2023/09/13 08:42:40;;;;;;;15.93;7.90;;;;;;;19.72;97.96;101326.44;5044243;28;20052;-67
2023/09/13 08:45:09;;;;;;;14.70;8.20;;;;;;;19.95;99.47;101326.59;5043378;28;20057;-67
2023/09/13 08:47:41;;;;;;;13.80;7.38;;;;;;;20.30;96.54;101332.28;5046184;28;20041;-66
2023/09/13 08:50:28;;;;;;;12.98;7.82;;;;;;;20.22;95.35;101341.69;5054027;28;20063;-67
2023/09/13 08:53:12;;;;;;;10.82;7.50;;;;;;;20.43;93.37;101345.81;5056297;28;20603;-66
2023/09/13 08:55:40;;;;;;;16.90;7.82;;;;;;;20.17;94.59;101357.56;5038963;28;20087;-62
2023/09/13 08:58:08;;;;;;;15.73;7.18;;;;;;;20.26;94.54;101354.56;5063233;28;20045;-62
2023/09/13 09:00:39;;;;;;;12.30;7.07;;;;;;;20.49;92.84;101346.31;5042693;28;20064;-63
2023/09/13 09:03:07;;;;;;;14.32;6.35;;;;;;;20.69;90.94;101346.00;5048802;28;20045;-64
2023/09/13 09:05:36;;;;;;;10.52;6.47;;;;;;;20.61;90.74;101348.97;5040395;28;20063;-62
2023/09/13 09:08:04;;;;;;;15.75;7.25;;;;;;;20.37;90.16;101357.63;5043853;28;20061;-63
2023/09/13 09:10:31;;;;;;;16.42;6.60;;;;;;;20.56;89.64;101354.88;5045893;28;20045;-63
2023/09/13 09:13:00;;;;;;;11.07;6.47;;;;;;;20.68;88.87;101360.34;5039887;28;20056;-62
2023/09/13 09:15:28;;;;;;;14.68;6.32;;;;;;;20.52;88.91;101354.00;5032779;28;20060;-64
2023/09/13 09:17:56;;;;;;;10.95;5.90;;;;;;;20.83;89.23;101356.69;5044864;28;20049;-62
2023/09/13 09:20:30;;;;;;;12.60;5.90;;;;;;;21.39;85.80;101369.13;5061555;28;20045;-64
2023/09/13 09:22:58;;;;;;;12.88;6.50;;;;;;;21.05;85.55;101368.03;5043696;28;20059;-62
2023/09/13 09:25:26;;;;;;;10.50;6.18;;;;;;;21.27;85.75;101377.66;5044149;28;20055;-63
2023/09/13 09:27:53;;;;;;;12.90;6.38;;;;;;;20.67;88.02;101379.16;5044695;28;20590;-62
2023/09/13 09:30:33;;;;;;;9.32;5.47;;;;;;;20.97;87.98;101377.41;5048426;28;20056;-64
2023/09/13 09:33:01;;;;;;;10.63;6.22;;;;;;;20.95;86.75;101373.38;5041781;28;20064;-63
2023/09/13 09:35:29;;;;;;;12.85;5.80;;;;;;;20.53;90.14;101380.81;5034721;28;20052;-63
2023/09/13 09:37:56;;;;;;;13.55;6.43;;;;;;;20.79;88.91;101378.22;5052499;28;20053;-63
2023/09/13 09:40:24;;;;;;;11.27;6.30;;;;;;;21.23;86.65;101383.19;5041328;28;20041;-64
2023/09/13 09:42:56;;;;;;;10.40;6.40;;;;;;;20.77;85.99;101375.78;5042497;28;20045;-63
2023/09/13 09:45:24;;;;;;;13.18;6.00;;;;;;;20.50;88.33;101375.94;5027719;28;20060;-63
2023/09/13 09:47:52;;;;;;;13.88;5.85;;;;;;;20.46;89.20;101380.63;5043215;28;20635;-66
2023/09/13 09:50:20;;;;;;;13.90;6.40;;;;;;;20.76;87.53;101376.97;5017625;28;20053;-64
2023/09/13 09:52:51;;;;;;;18.08;5.93;;;;;;;21.12;86.17;101376.56;5058047;28;20049;-62
2023/09/13 09:55:21;;;;;;;15.40;5.47;;;;;;;21.37;84.77;101376.25;5043387;28;20075;-63
2023/09/13 09:57:51;;;;;;;14.15;5.88;;;;;;;20.69;86.21;101374.00;5044544;28;20620;-62
2023/09/13 10:00:18;;;;;;;13.32;5.80;;;;;;;20.35;88.83;101380.38;5041217;28;20052;-65
2023/09/13 10:02:47;;;;;;;14.48;6.22;;;;;;;20.62;88.13;101378.63;5050476;28;20052;-62
2023/09/13 10:05:18;;;;;;;13.93;5.90;;;;;;;21.22;85.89;101380.75;5042740;28;20068;-61
2023/09/13 10:07:51;;;;;;;11.05;5.88;;;;;;;21.67;82.62;101380.06;5043235;28;20063;-63
2023/09/13 10:10:34;;;;;;;9.88;5.70;;;;;;;21.67;80.73;101386.47;5039138;28;20060;-62
2023/09/13 10:13:03;;;;;;;8.65;5.55;;;;;;;21.84;79.91;101382.41;5044307;28;20065;-63
2023/09/13 10:15:31;;;;;;;10.77;6.03;;;;;;;21.80;80.21;101382.34;5042619;28;20140;-62
2023/09/13 10:18:01;;;;;;;8.75;5.90;;;;;;;21.78;79.77;101369.88;5047695;28;20050;-61
2023/09/13 10:20:30;;;;;;;15.05;9.30;;;;;;;22.03;79.03;101371.94;5044178;28;20048;-62
2023/09/13 10:23:00;;;;;;;11.65;6.93;;;;;;;22.24;78.23;101377.91;5021967;28;20053;-61
2023/09/13 10:25:30;;;;;;;;;;;;;;;22.28;77.13;101378.75;5047859;28;20056;-62
2023/09/13 10:27:59;;;;;;;10.35;5.70;;;;;;;22.25;77.41;101382.34;5039068;28;19920;-62
2023/09/13 10:30:28;;;;;;;9.77;6.53;;;;;;;22.34;76.97;101382.88;5037186;28;20466;-64
2023/09/13 10:32:57;;;;;;;11.93;7.07;;;;;;;22.79;74.48;101375.53;5043316;28;20191;-64
2023/09/13 10:35:28;;;;;;;11.27;6.13;;;;;;;22.66;74.47;101382.59;5039104;28;20053;-64
2023/09/13 10:38:14;;;;;;;10.75;5.93;;;;;;;22.82;74.18;101384.03;5035333;28;20053;-64
2023/09/13 10:40:46;;;;;;;8.40;5.22;;;;;;;22.92;74.54;101383.38;5044154;28;20048;-65
2023/09/13 10:43:14;;;;;;;9.88;5.72;;;;;;;23.09;74.52;101384.78;5041501;28;20045;-65
2023/09/13 10:45:42;;;;;;;8.38;5.10;;;;;;;23.30;73.67;101385.09;5044123;28;20056;-65
2023/09/13 10:48:10;;;;;;;10.27;5.88;;;;;;;23.49;71.75;101386.91;5047630;28;20052;-63
2023/09/13 10:50:38;;;;;;;8.70;4.88;;;;;;;23.54;71.40;101378.94;5029381;28;20067;-65
2023/09/13 10:53:06;;;;;;;9.75;5.22;;;;;;;23.20;72.34;101380.13;5043087;28;20049;-66
2023/09/13 10:55:34;;;;;;;11.77;5.15;;;;;;;23.12;72.71;101379.22;5044085;28;20053;-65
2023/09/13 10:58:03;;;;;;;11.38;7.00;;;;;;;23.54;71.66;101380.97;5029143;28;20041;-64
2023/09/13 11:00:34;;;;;;;15.75;8.63;;;;;;;23.55;71.15;101380.56;5035788;28;20052;-65
2023/09/13 11:03:02;;;;;;;20.98;9.65;;;;;;;23.57;69.40;101383.00;5043219;28;20049;-65
2023/09/13 11:05:32;;;;;;;10.63;6.65;;;;;;;23.59;69.27;101383.44;5043991;28;20048;-65
2023/09/13 11:07:59;;;;;;;102.57;42.55;;;;;;;23.64;68.49;101385.88;5043163;28;20045;-64
2023/09/13 11:10:30;;;;;;;61.20;31.48;;;;;;;23.66;68.69;101384.28;5026527;28;20059;-66
2023/09/13 11:13:11;;;;;;;18.95;10.63;;;;;;;23.37;68.78;101386.00;5045673;28;20052;-64
2023/09/13 11:16:03;;;;;;;18.83;10.57;;;;;;;23.72;68.18;101382.75;5040908;28;20045;-65
2023/09/13 11:18:31;;;;;;;15.80;8.55;;;;;;;23.07;69.99;101378.75;5021919;28;20096;-65